Here is the Quick Look data you requested

The Data originates at the National Weather Service, and is made available here by the UAlbany Department of Atmospheric and Environmental Sciences

Surface Observations

KCBE 220555Z AUTO 00000KT 10SM SCT080 22/20 A2996 RMK AO2 T02230196 10274 20222=
KFDK 220545Z AUTO 23003KT 10SM CLR 24/22 A2993 RMK AO2=
KILG 220551Z AUTO 36004KT 10SM SCT070 27/23 A2988 RMK AO2 SLP118 60007
 T02670228 10322 20250 53005 $=
KTHV 220553Z AUTO 00000KT 10SM CLR 23/21 A2987 RMK AO2 SLP113 60003 T02330206
 10289 20228 56004=
KCXY 220556Z AUTO 31004KT 10SM CLR 26/20 A2989 RMK AO2 SLP118 60001 T02560200
 10333 20250 55006=
KAOO 220553Z AUTO 27005KT 10SM SCT038 BKN047 BKN060 22/20 A2995 RMK AO2 SLP128
 60003 T02170200 10267 20217 58002=
KJST 220554Z AUTO 20003KT 10SM CLR 21/19 A2998 RMK AO2 SLP135 60002 T02060189
 10250 20206 56004=
KDCA 220552Z 01003KT 10SM BKN150 OVC250 26/21 A2989 RMK AO2 SLP121 60000
 T02610206 10328 20261 58001=
KIAD 220552Z 12003KT 10SM BKN140 BKN250 23/20 A2989 RMK AO2 SLP119 60000
 T02280200 10267 20222 58004=
KOKV 220555Z AUTO 21004KT 10SM CLR 22/19 A2994 RMK AO2=
KMRB 220553Z AUTO 22003KT 10SM CLR 22/21 A2989 RMK AO2 SLP116 60010 T02220206
 10244 20222 58002=
KMGW 220553Z AUTO 19005KT 10SM OVC043 24/19 A2995 RMK AO2 SLP128 T02390189
 10267 20233 58005=
KADW 220556Z AUTO 00000KT 10SM CLR 26/20 A2989 RMK AO2 SLP125 T02620200 10331
 20254 55001 $=
KBWI 220554Z 20004KT 10SM FEW085 BKN200 OVC250 27/21 A2988 RMK AO2 SLP116
 T02670211 10344 20261 56004=
KDMH 220554Z AUTO 27/21 A2988 RMK AO1 SLP118 T02670211 10356 20267 55000=
KFME 220603Z AUTO 00000KT 10SM CLR 22/21 A2991 RMK AO1=
KHGR 220553Z AUTO 18004KT 10SM CLR 23/23 A2991 RMK AO2 SLP132 60081 T02280228
 10306 20228 53003=
KMTN 220603Z AUTO 18003KT 10SM SCT090 27/22 A2989 RMK AO2=
KNHK 220552Z AUTO 25006KT 10SM CLR 26/22 A2989 RMK AO2 SLP122 T02610222 10328
 20250 53004 $=
KOXB 220553Z AUTO 25006KT 10SM CLR 28/24 A2988 RMK AO2 SLP118 T02830239 10328
 20283 53002=
KSBY 220554Z AUTO 23005KT 10SM CLR 27/24 A2989 RMK AO2 SLP121 T02720239 10317
 20272 53003=